sensor_id;sensor_type;location;lat;lon;timestamp;P1;durP1;ratioP1;P2;durP2;ratioP2
69970;SDS011;57301;50.328;8.542;2024-03-08T00:00:34;32.97;;;17.77;;
69970;SDS011;57301;50.328;8.542;2024-03-08T00:03:01;31.37;;;15.70;;
69970;SDS011;57301;50.328;8.542;2024-03-08T00:05:28;34.58;;;17.10;;
69970;SDS011;57301;50.328;8.542;2024-03-08T00:07:55;30.67;;;16.88;;
69970;SDS011;57301;50.328;8.542;2024-03-08T00:10:22;36.33;;;16.65;;
69970;SDS011;57301;50.328;8.542;2024-03-08T00:12:53;34.88;;;16.95;;
69970;SDS011;57301;50.328;8.542;2024-03-08T00:15:19;35.13;;;18.53;;
69970;SDS011;57301;50.328;8.542;2024-03-08T00:17:49;31.02;;;15.02;;
69970;SDS011;57301;50.328;8.542;2024-03-08T00:20:16;36.97;;;17.40;;
69970;SDS011;57301;50.328;8.542;2024-03-08T00:22:46;42.63;;;19.63;;
69970;SDS011;57301;50.328;8.542;2024-03-08T00:25:13;29.15;;;15.38;;
69970;SDS011;57301;50.328;8.542;2024-03-08T00:27:40;25.73;;;13.70;;
69970;SDS011;57301;50.328;8.542;2024-03-08T00:30:10;27.25;;;14.15;;
69970;SDS011;57301;50.328;8.542;2024-03-08T00:32:40;26.58;;;13.57;;
69970;SDS011;57301;50.328;8.542;2024-03-08T00:35:07;27.75;;;14.07;;
69970;SDS011;57301;50.328;8.542;2024-03-08T00:37:34;27.63;;;13.63;;
69970;SDS011;57301;50.328;8.542;2024-03-08T00:40:01;27.10;;;13.97;;
69970;SDS011;57301;50.328;8.542;2024-03-08T00:42:27;27.55;;;13.35;;
69970;SDS011;57301;50.328;8.542;2024-03-08T00:44:54;27.02;;;13.15;;
69970;SDS011;57301;50.328;8.542;2024-03-08T00:47:21;25.40;;;13.68;;
69970;SDS011;57301;50.328;8.542;2024-03-08T00:49:47;28.30;;;14.15;;
69970;SDS011;57301;50.328;8.542;2024-03-08T00:52:14;31.37;;;14.90;;
69970;SDS011;57301;50.328;8.542;2024-03-08T00:54:41;29.45;;;14.45;;
69970;SDS011;57301;50.328;8.542;2024-03-08T00:57:09;29.30;;;13.23;;
69970;SDS011;57301;50.328;8.542;2024-03-08T00:59:37;29.27;;;14.05;;
69970;SDS011;57301;50.328;8.542;2024-03-08T01:02:04;27.23;;;12.80;;
69970;SDS011;57301;50.328;8.542;2024-03-08T01:04:32;28.90;;;13.90;;
69970;SDS011;57301;50.328;8.542;2024-03-08T01:06:59;25.88;;;12.93;;
69970;SDS011;57301;50.328;8.542;2024-03-08T01:09:26;25.70;;;13.00;;
69970;SDS011;57301;50.328;8.542;2024-03-08T01:11:54;28.85;;;14.30;;
69970;SDS011;57301;50.328;8.542;2024-03-08T01:14:21;26.08;;;12.60;;
69970;SDS011;57301;50.328;8.542;2024-03-08T01:16:49;26.50;;;13.07;;
69970;SDS011;57301;50.328;8.542;2024-03-08T01:19:16;28.25;;;13.57;;
69970;SDS011;57301;50.328;8.542;2024-03-08T01:21:42;32.40;;;15.55;;
69970;SDS011;57301;50.328;8.542;2024-03-08T01:24:09;33.72;;;14.70;;
69970;SDS011;57301;50.328;8.542;2024-03-08T01:26:36;33.15;;;15.00;;
69970;SDS011;57301;50.328;8.542;2024-03-08T01:29:03;29.10;;;13.60;;
69970;SDS011;57301;50.328;8.542;2024-03-08T01:31:29;27.90;;;13.38;;
69970;SDS011;57301;50.328;8.542;2024-03-08T01:33:56;28.42;;;12.93;;
69970;SDS011;57301;50.328;8.542;2024-03-08T01:36:24;26.85;;;13.32;;
69970;SDS011;57301;50.328;8.542;2024-03-08T01:38:51;32.13;;;14.05;;
69970;SDS011;57301;50.328;8.542;2024-03-08T01:41:18;28.63;;;14.50;;
69970;SDS011;57301;50.328;8.542;2024-03-08T01:43:45;30.52;;;14.23;;
69970;SDS011;57301;50.328;8.542;2024-03-08T01:46:14;30.60;;;13.55;;
69970;SDS011;57301;50.328;8.542;2024-03-08T01:48:43;28.80;;;14.52;;
69970;SDS011;57301;50.328;8.542;2024-03-08T01:51:11;26.52;;;13.40;;
69970;SDS011;57301;50.328;8.542;2024-03-08T01:53:41;29.03;;;13.63;;
69970;SDS011;57301;50.328;8.542;2024-03-08T01:56:12;29.30;;;13.98;;
69970;SDS011;57301;50.328;8.542;2024-03-08T01:58:43;32.72;;;14.90;;
69970;SDS011;57301;50.328;8.542;2024-03-08T02:01:13;30.17;;;15.45;;
69970;SDS011;57301;50.328;8.542;2024-03-08T02:03:43;31.40;;;13.38;;
69970;SDS011;57301;50.328;8.542;2024-03-08T02:06:11;29.03;;;13.87;;
69970;SDS011;57301;50.328;8.542;2024-03-08T02:08:41;31.77;;;15.10;;
69970;SDS011;57301;50.328;8.542;2024-03-08T02:11:10;34.63;;;14.73;;
69970;SDS011;57301;50.328;8.542;2024-03-08T02:13:37;31.05;;;14.27;;
69970;SDS011;57301;50.328;8.542;2024-03-08T02:16:04;30.88;;;14.10;;
69970;SDS011;57301;50.328;8.542;2024-03-08T02:18:34;29.60;;;13.63;;
69970;SDS011;57301;50.328;8.542;2024-03-08T02:21:02;31.88;;;15.07;;
69970;SDS011;57301;50.328;8.542;2024-03-08T02:23:30;28.08;;;14.00;;
69970;SDS011;57301;50.328;8.542;2024-03-08T02:25:58;30.10;;;14.27;;
69970;SDS011;57301;50.328;8.542;2024-03-08T02:28:25;32.08;;;14.88;;
69970;SDS011;57301;50.328;8.542;2024-03-08T02:30:52;30.80;;;13.53;;
69970;SDS011;57301;50.328;8.542;2024-03-08T02:33:23;32.53;;;14.43;;
69970;SDS011;57301;50.328;8.542;2024-03-08T02:35:50;29.85;;;14.48;;
69970;SDS011;57301;50.328;8.542;2024-03-08T02:38:17;31.58;;;14.00;;
69970;SDS011;57301;50.328;8.542;2024-03-08T02:40:46;30.52;;;14.63;;
69970;SDS011;57301;50.328;8.542;2024-03-08T02:43:14;34.13;;;14.40;;
69970;SDS011;57301;50.328;8.542;2024-03-08T02:45:41;31.20;;;14.30;;
69970;SDS011;57301;50.328;8.542;2024-03-08T02:48:08;30.52;;;15.00;;
69970;SDS011;57301;50.328;8.542;2024-03-08T02:50:35;35.47;;;14.50;;
69970;SDS011;57301;50.328;8.542;2024-03-08T02:53:03;32.50;;;15.55;;
69970;SDS011;57301;50.328;8.542;2024-03-08T02:55:30;35.17;;;15.27;;
69970;SDS011;57301;50.328;8.542;2024-03-08T02:57:56;32.75;;;14.68;;
69970;SDS011;57301;50.328;8.542;2024-03-08T03:00:23;33.33;;;14.77;;
69970;SDS011;57301;50.328;8.542;2024-03-08T03:02:50;31.35;;;14.50;;
69970;SDS011;57301;50.328;8.542;2024-03-08T03:05:20;30.02;;;14.30;;
69970;SDS011;57301;50.328;8.542;2024-03-08T03:07:47;31.87;;;14.90;;
69970;SDS011;57301;50.328;8.542;2024-03-08T03:10:16;32.22;;;14.82;;
69970;SDS011;57301;50.328;8.542;2024-03-08T03:12:43;29.77;;;14.07;;
69970;SDS011;57301;50.328;8.542;2024-03-08T03:15:12;32.38;;;14.63;;
69970;SDS011;57301;50.328;8.542;2024-03-08T03:17:40;31.20;;;13.77;;
69970;SDS011;57301;50.328;8.542;2024-03-08T03:20:07;34.60;;;15.43;;
69970;SDS011;57301;50.328;8.542;2024-03-08T03:22:40;32.92;;;15.35;;
69970;SDS011;57301;50.328;8.542;2024-03-08T03:25:07;32.40;;;14.57;;
69970;SDS011;57301;50.328;8.542;2024-03-08T03:27:35;33.72;;;14.45;;
69970;SDS011;57301;50.328;8.542;2024-03-08T03:30:03;32.67;;;14.25;;
69970;SDS011;57301;50.328;8.542;2024-03-08T03:32:50;29.23;;;13.83;;
69970;SDS011;57301;50.328;8.542;2024-03-08T03:35:18;29.63;;;14.73;;
69970;SDS011;57301;50.328;8.542;2024-03-08T03:37:47;34.30;;;14.20;;
69970;SDS011;57301;50.328;8.542;2024-03-08T03:40:28;33.22;;;15.13;;
69970;SDS011;57301;50.328;8.542;2024-03-08T03:42:55;33.80;;;14.90;;
69970;SDS011;57301;50.328;8.542;2024-03-08T03:45:22;45.03;;;18.53;;
69970;SDS011;57301;50.328;8.542;2024-03-08T03:47:50;45.55;;;19.23;;
69970;SDS011;57301;50.328;8.542;2024-03-08T03:50:18;39.35;;;17.05;;
69970;SDS011;57301;50.328;8.542;2024-03-08T03:52:49;38.33;;;16.75;;
69970;SDS011;57301;50.328;8.542;2024-03-08T03:55:16;36.83;;;16.88;;
69970;SDS011;57301;50.328;8.542;2024-03-08T03:57:43;58.50;;;24.43;;
69970;SDS011;57301;50.328;8.542;2024-03-08T04:00:12;50.63;;;22.92;;
69970;SDS011;57301;50.328;8.542;2024-03-08T04:02:39;43.50;;;19.15;;
69970;SDS011;57301;50.328;8.542;2024-03-08T04:05:07;34.88;;;17.10;;
69970;SDS011;57301;50.328;8.542;2024-03-08T04:07:35;38.88;;;16.45;;
69970;SDS011;57301;50.328;8.542;2024-03-08T04:10:02;38.83;;;16.37;;
69970;SDS011;57301;50.328;8.542;2024-03-08T04:12:29;36.47;;;16.73;;
69970;SDS011;57301;50.328;8.542;2024-03-08T04:14:56;36.85;;;17.02;;
69970;SDS011;57301;50.328;8.542;2024-03-08T04:17:23;36.35;;;16.50;;
69970;SDS011;57301;50.328;8.542;2024-03-08T04:19:53;37.20;;;17.23;;
69970;SDS011;57301;50.328;8.542;2024-03-08T04:22:20;38.80;;;16.77;;
69970;SDS011;57301;50.328;8.542;2024-03-08T04:24:46;36.97;;;17.23;;
69970;SDS011;57301;50.328;8.542;2024-03-08T04:27:13;34.10;;;15.35;;
69970;SDS011;57301;50.328;8.542;2024-03-08T04:29:40;37.08;;;15.80;;
69970;SDS011;57301;50.328;8.542;2024-03-08T04:32:08;33.88;;;14.25;;
69970;SDS011;57301;50.328;8.542;2024-03-08T04:34:35;33.20;;;15.97;;
69970;SDS011;57301;50.328;8.542;2024-03-08T04:37:02;34.65;;;15.80;;
69970;SDS011;57301;50.328;8.542;2024-03-08T04:39:31;37.50;;;15.95;;
69970;SDS011;57301;50.328;8.542;2024-03-08T04:41:59;34.15;;;16.45;;
69970;SDS011;57301;50.328;8.542;2024-03-08T04:44:32;36.92;;;15.90;;
69970;SDS011;57301;50.328;8.542;2024-03-08T04:47:00;31.97;;;16.03;;
69970;SDS011;57301;50.328;8.542;2024-03-08T04:49:27;34.45;;;16.25;;
69970;SDS011;57301;50.328;8.542;2024-03-08T04:51:54;36.47;;;16.50;;
69970;SDS011;57301;50.328;8.542;2024-03-08T04:54:21;37.13;;;16.80;;
69970;SDS011;57301;50.328;8.542;2024-03-08T04:56:47;33.80;;;15.70;;
69970;SDS011;57301;50.328;8.542;2024-03-08T04:59:15;38.57;;;16.53;;
69970;SDS011;57301;50.328;8.542;2024-03-08T05:01:42;36.72;;;16.27;;
69970;SDS011;57301;50.328;8.542;2024-03-08T05:04:09;37.58;;;16.23;;
69970;SDS011;57301;50.328;8.542;2024-03-08T05:06:36;37.42;;;16.35;;
69970;SDS011;57301;50.328;8.542;2024-03-08T05:09:03;40.42;;;18.00;;
69970;SDS011;57301;50.328;8.542;2024-03-08T05:11:40;36.23;;;16.20;;
69970;SDS011;57301;50.328;8.542;2024-03-08T05:14:09;32.72;;;15.45;;
69970;SDS011;57301;50.328;8.542;2024-03-08T05:16:36;35.10;;;15.68;;
69970;SDS011;57301;50.328;8.542;2024-03-08T05:19:03;40.63;;;16.95;;
69970;SDS011;57301;50.328;8.542;2024-03-08T05:21:29;39.08;;;16.95;;
69970;SDS011;57301;50.328;8.542;2024-03-08T05:23:56;41.93;;;17.50;;
69970;SDS011;57301;50.328;8.542;2024-03-08T05:26:22;38.20;;;17.08;;
69970;SDS011;57301;50.328;8.542;2024-03-08T05:28:49;36.80;;;16.70;;
69970;SDS011;57301;50.328;8.542;2024-03-08T05:31:21;39.65;;;17.63;;
69970;SDS011;57301;50.328;8.542;2024-03-08T05:33:49;45.05;;;18.25;;
69970;SDS011;57301;50.328;8.542;2024-03-08T05:36:16;39.47;;;17.73;;
69970;SDS011;57301;50.328;8.542;2024-03-08T05:38:43;37.85;;;18.20;;
69970;SDS011;57301;50.328;8.542;2024-03-08T05:41:10;46.53;;;18.90;;
69970;SDS011;57301;50.328;8.542;2024-03-08T05:43:38;41.67;;;17.52;;
69970;SDS011;57301;50.328;8.542;2024-03-08T05:46:05;38.38;;;16.92;;
69970;SDS011;57301;50.328;8.542;2024-03-08T05:48:31;37.47;;;17.70;;
69970;SDS011;57301;50.328;8.542;2024-03-08T05:51:01;38.97;;;16.98;;
69970;SDS011;57301;50.328;8.542;2024-03-08T05:53:28;42.55;;;18.73;;
69970;SDS011;57301;50.328;8.542;2024-03-08T05:55:58;41.55;;;18.63;;
69970;SDS011;57301;50.328;8.542;2024-03-08T05:58:25;46.42;;;19.42;;
69970;SDS011;57301;50.328;8.542;2024-03-08T06:00:52;41.13;;;18.90;;
69970;SDS011;57301;50.328;8.542;2024-03-08T06:03:19;41.40;;;18.88;;
69970;SDS011;57301;50.328;8.542;2024-03-08T06:05:48;39.42;;;17.15;;
69970;SDS011;57301;50.328;8.542;2024-03-08T06:08:15;41.45;;;18.90;;
69970;SDS011;57301;50.328;8.542;2024-03-08T06:10:42;42.47;;;18.73;;
69970;SDS011;57301;50.328;8.542;2024-03-08T06:13:09;44.90;;;18.37;;
69970;SDS011;57301;50.328;8.542;2024-03-08T06:15:38;40.20;;;18.65;;
69970;SDS011;57301;50.328;8.542;2024-03-08T06:18:05;36.88;;;17.75;;
69970;SDS011;57301;50.328;8.542;2024-03-08T06:20:32;39.72;;;17.17;;
69970;SDS011;57301;50.328;8.542;2024-03-08T06:22:59;35.08;;;17.05;;
69970;SDS011;57301;50.328;8.542;2024-03-08T06:25:26;34.33;;;16.80;;
69970;SDS011;57301;50.328;8.542;2024-03-08T06:27:52;34.28;;;16.25;;
69970;SDS011;57301;50.328;8.542;2024-03-08T06:30:19;38.13;;;17.38;;
69970;SDS011;57301;50.328;8.542;2024-03-08T06:32:47;33.53;;;16.95;;
69970;SDS011;57301;50.328;8.542;2024-03-08T06:35:14;29.45;;;15.73;;
69970;SDS011;57301;50.328;8.542;2024-03-08T06:37:42;34.27;;;16.53;;
69970;SDS011;57301;50.328;8.542;2024-03-08T06:40:10;33.67;;;16.85;;
69970;SDS011;57301;50.328;8.542;2024-03-08T06:42:40;33.63;;;15.38;;
69970;SDS011;57301;50.328;8.542;2024-03-08T06:45:07;35.40;;;16.73;;
69970;SDS011;57301;50.328;8.542;2024-03-08T06:47:36;30.95;;;16.23;;
69970;SDS011;57301;50.328;8.542;2024-03-08T06:50:03;30.27;;;15.40;;
69970;SDS011;57301;50.328;8.542;2024-03-08T06:52:30;36.42;;;17.30;;
69970;SDS011;57301;50.328;8.542;2024-03-08T06:54:57;29.23;;;14.43;;
69970;SDS011;57301;50.328;8.542;2024-03-08T06:57:24;27.50;;;15.02;;
69970;SDS011;57301;50.328;8.542;2024-03-08T06:59:50;29.05;;;15.20;;
69970;SDS011;57301;50.328;8.542;2024-03-08T07:02:18;27.90;;;14.60;;
69970;SDS011;57301;50.328;8.542;2024-03-08T07:04:45;27.98;;;15.32;;
69970;SDS011;57301;50.328;8.542;2024-03-08T07:07:11;26.70;;;15.15;;
69970;SDS011;57301;50.328;8.542;2024-03-08T07:09:38;30.15;;;14.88;;
69970;SDS011;57301;50.328;8.542;2024-03-08T07:12:05;31.88;;;15.23;;
69970;SDS011;57301;50.328;8.542;2024-03-08T07:14:31;24.07;;;13.63;;
69970;SDS011;57301;50.328;8.542;2024-03-08T07:16:58;23.50;;;12.02;;
69970;SDS011;57301;50.328;8.542;2024-03-08T07:19:25;27.08;;;13.93;;
69970;SDS011;57301;50.328;8.542;2024-03-08T07:21:51;27.35;;;13.30;;
69970;SDS011;57301;50.328;8.542;2024-03-08T07:24:18;26.85;;;14.38;;
69970;SDS011;57301;50.328;8.542;2024-03-08T07:26:59;26.83;;;15.13;;
69970;SDS011;57301;50.328;8.542;2024-03-08T07:29:26;29.48;;;15.73;;
69970;SDS011;57301;50.328;8.542;2024-03-08T07:31:52;21.13;;;11.07;;
69970;SDS011;57301;50.328;8.542;2024-03-08T07:34:37;33.70;;;15.60;;
69970;SDS011;57301;50.328;8.542;2024-03-08T07:37:06;27.92;;;14.90;;
69970;SDS011;57301;50.328;8.542;2024-03-08T07:39:37;28.20;;;14.93;;
69970;SDS011;57301;50.328;8.542;2024-03-08T07:42:05;28.90;;;14.50;;
69970;SDS011;57301;50.328;8.542;2024-03-08T07:44:31;24.65;;;14.18;;
69970;SDS011;57301;50.328;8.542;2024-03-08T07:46:58;21.50;;;11.55;;
69970;SDS011;57301;50.328;8.542;2024-03-08T07:49:25;21.60;;;10.70;;
69970;SDS011;57301;50.328;8.542;2024-03-08T07:51:52;26.50;;;15.13;;
69970;SDS011;57301;50.328;8.542;2024-03-08T07:54:18;27.23;;;13.93;;
69970;SDS011;57301;50.328;8.542;2024-03-08T07:56:45;23.13;;;12.00;;
69970;SDS011;57301;50.328;8.542;2024-03-08T07:59:11;29.20;;;15.05;;
69970;SDS011;57301;50.328;8.542;2024-03-08T08:01:38;23.92;;;13.15;;
69970;SDS011;57301;50.328;8.542;2024-03-08T08:04:05;24.43;;;14.77;;
69970;SDS011;57301;50.328;8.542;2024-03-08T08:06:31;27.33;;;14.55;;
69970;SDS011;57301;50.328;8.542;2024-03-08T08:08:59;24.98;;;14.35;;
69970;SDS011;57301;50.328;8.542;2024-03-08T08:11:27;24.75;;;13.77;;
69970;SDS011;57301;50.328;8.542;2024-03-08T08:13:57;27.98;;;16.95;;
69970;SDS011;57301;50.328;8.542;2024-03-08T08:16:25;28.90;;;14.87;;
69970;SDS011;57301;50.328;8.542;2024-03-08T08:18:52;25.83;;;14.15;;
69970;SDS011;57301;50.328;8.542;2024-03-08T08:21:19;22.73;;;12.77;;
69970;SDS011;57301;50.328;8.542;2024-03-08T08:23:45;25.55;;;15.07;;
69970;SDS011;57301;50.328;8.542;2024-03-08T08:26:12;27.40;;;14.45;;
69970;SDS011;57301;50.328;8.542;2024-03-08T08:28:39;25.37;;;14.13;;
69970;SDS011;57301;50.328;8.542;2024-03-08T08:31:07;26.52;;;14.32;;
69970;SDS011;57301;50.328;8.542;2024-03-08T08:33:34;25.52;;;14.52;;
69970;SDS011;57301;50.328;8.542;2024-03-08T08:36:01;27.98;;;15.27;;
69970;SDS011;57301;50.328;8.542;2024-03-08T08:38:29;22.20;;;12.60;;
69970;SDS011;57301;50.328;8.542;2024-03-08T08:40:56;23.53;;;14.47;;
69970;SDS011;57301;50.328;8.542;2024-03-08T08:43:22;21.98;;;13.23;;
69970;SDS011;57301;50.328;8.542;2024-03-08T08:45:51;24.30;;;14.43;;
69970;SDS011;57301;50.328;8.542;2024-03-08T08:48:20;23.65;;;12.65;;
69970;SDS011;57301;50.328;8.542;2024-03-08T08:50:47;23.75;;;12.98;;
69970;SDS011;57301;50.328;8.542;2024-03-08T08:53:14;24.60;;;14.40;;
69970;SDS011;57301;50.328;8.542;2024-03-08T08:55:41;26.58;;;14.88;;
69970;SDS011;57301;50.328;8.542;2024-03-08T08:58:07;26.63;;;15.85;;
69970;SDS011;57301;50.328;8.542;2024-03-08T09:00:34;21.65;;;13.40;;
69970;SDS011;57301;50.328;8.542;2024-03-08T09:03:00;21.83;;;11.88;;
69970;SDS011;57301;50.328;8.542;2024-03-08T09:05:28;25.43;;;13.67;;
69970;SDS011;57301;50.328;8.542;2024-03-08T09:07:55;21.95;;;11.77;;
69970;SDS011;57301;50.328;8.542;2024-03-08T09:10:22;23.00;;;13.52;;
69970;SDS011;57301;50.328;8.542;2024-03-08T09:12:49;23.15;;;14.27;;
69970;SDS011;57301;50.328;8.542;2024-03-08T09:15:15;25.30;;;13.80;;
69970;SDS011;57301;50.328;8.542;2024-03-08T09:17:44;22.13;;;13.00;;
69970;SDS011;57301;50.328;8.542;2024-03-08T09:20:10;25.85;;;13.25;;
69970;SDS011;57301;50.328;8.542;2024-03-08T09:22:44;20.90;;;12.85;;
69970;SDS011;57301;50.328;8.542;2024-03-08T09:25:11;23.05;;;12.85;;
69970;SDS011;57301;50.328;8.542;2024-03-08T09:27:38;23.95;;;12.75;;
69970;SDS011;57301;50.328;8.542;2024-03-08T09:30:06;24.17;;;12.97;;
69970;SDS011;57301;50.328;8.542;2024-03-08T09:32:34;21.65;;;12.05;;
69970;SDS011;57301;50.328;8.542;2024-03-08T09:35:01;25.55;;;12.40;;
69970;SDS011;57301;50.328;8.542;2024-03-08T09:37:28;22.45;;;12.38;;
69970;SDS011;57301;50.328;8.542;2024-03-08T09:39:54;20.77;;;12.35;;
69970;SDS011;57301;50.328;8.542;2024-03-08T09:42:21;18.37;;;10.50;;
69970;SDS011;57301;50.328;8.542;2024-03-08T09:44:47;19.83;;;10.80;;
69970;SDS011;57301;50.328;8.542;2024-03-08T09:47:15;20.55;;;12.52;;
69970;SDS011;57301;50.328;8.542;2024-03-08T09:49:42;20.77;;;12.40;;
69970;SDS011;57301;50.328;8.542;2024-03-08T09:52:10;22.55;;;12.05;;
69970;SDS011;57301;50.328;8.542;2024-03-08T09:54:39;22.40;;;12.30;;
69970;SDS011;57301;50.328;8.542;2024-03-08T09:57:06;22.45;;;11.50;;
69970;SDS011;57301;50.328;8.542;2024-03-08T09:59:35;20.42;;;12.60;;
69970;SDS011;57301;50.328;8.542;2024-03-08T10:02:02;20.90;;;12.95;;
69970;SDS011;57301;50.328;8.542;2024-03-08T10:04:29;19.73;;;11.85;;
69970;SDS011;57301;50.328;8.542;2024-03-08T10:06:57;17.57;;;9.13;;
69970;SDS011;57301;50.328;8.542;2024-03-08T10:09:26;21.65;;;12.65;;
69970;SDS011;57301;50.328;8.542;2024-03-08T10:11:57;20.05;;;12.18;;
69970;SDS011;57301;50.328;8.542;2024-03-08T10:14:24;17.83;;;10.63;;
69970;SDS011;57301;50.328;8.542;2024-03-08T10:16:52;21.00;;;12.63;;
69970;SDS011;57301;50.328;8.542;2024-03-08T10:19:20;17.90;;;10.70;;
69970;SDS011;57301;50.328;8.542;2024-03-08T10:21:49;19.77;;;12.63;;
69970;SDS011;57301;50.328;8.542;2024-03-08T10:24:19;20.83;;;12.25;;
69970;SDS011;57301;50.328;8.542;2024-03-08T10:26:46;18.05;;;11.40;;
69970;SDS011;57301;50.328;8.542;2024-03-08T10:29:14;20.48;;;12.10;;
69970;SDS011;57301;50.328;8.542;2024-03-08T10:31:43;16.80;;;9.43;;
69970;SDS011;57301;50.328;8.542;2024-03-08T10:34:11;18.38;;;12.02;;
69970;SDS011;57301;50.328;8.542;2024-03-08T10:36:37;20.27;;;11.98;;
69970;SDS011;57301;50.328;8.542;2024-03-08T10:39:20;16.65;;;8.93;;
69970;SDS011;57301;50.328;8.542;2024-03-08T10:41:58;18.23;;;10.25;;
69970;SDS011;57301;50.328;8.542;2024-03-08T10:52:51;16.52;;;10.13;;
69970;SDS011;57301;50.328;8.542;2024-03-08T10:55:19;19.77;;;11.85;;
69970;SDS011;57301;50.328;8.542;2024-03-08T10:57:47;16.83;;;10.17;;
69970;SDS011;57301;50.328;8.542;2024-03-08T11:00:14;16.23;;;10.88;;
69970;SDS011;57301;50.328;8.542;2024-03-08T11:02:44;19.67;;;10.98;;
69970;SDS011;57301;50.328;8.542;2024-03-08T11:05:15;16.05;;;9.23;;
69970;SDS011;57301;50.328;8.542;2024-03-08T11:08:02;13.43;;;8.50;;
69970;SDS011;57301;50.328;8.542;2024-03-08T11:10:30;16.77;;;9.03;;
69970;SDS011;57301;50.328;8.542;2024-03-08T11:12:57;15.43;;;9.82;;
69970;SDS011;57301;50.328;8.542;2024-03-08T11:15:24;17.27;;;10.48;;
69970;SDS011;57301;50.328;8.542;2024-03-08T11:17:51;15.55;;;9.90;;
69970;SDS011;57301;50.328;8.542;2024-03-08T11:20:18;16.83;;;9.52;;
69970;SDS011;57301;50.328;8.542;2024-03-08T11:25:34;17.88;;;10.70;;
69970;SDS011;57301;50.328;8.542;2024-03-08T11:30:45;16.17;;;8.88;;
69970;SDS011;57301;50.328;8.542;2024-03-08T11:33:34;17.13;;;8.95;;
69970;SDS011;57301;50.328;8.542;2024-03-08T11:36:02;16.87;;;10.43;;
69970;SDS011;57301;50.328;8.542;2024-03-08T11:38:33;16.17;;;9.82;;
69970;SDS011;57301;50.328;8.542;2024-03-08T11:41:06;14.73;;;9.27;;
69970;SDS011;57301;50.328;8.542;2024-03-08T11:43:34;16.48;;;10.00;;
69970;SDS011;57301;50.328;8.542;2024-03-08T11:46:11;16.20;;;10.00;;
69970;SDS011;57301;50.328;8.542;2024-03-08T11:48:42;16.43;;;10.70;;
69970;SDS011;57301;50.328;8.542;2024-03-08T11:51:13;16.02;;;10.68;;
69970;SDS011;57301;50.328;8.542;2024-03-08T11:53:41;15.98;;;10.00;;
69970;SDS011;57301;50.328;8.542;2024-03-08T11:56:12;17.98;;;10.68;;
69970;SDS011;57301;50.328;8.542;2024-03-08T11:58:40;16.70;;;10.30;;
69970;SDS011;57301;50.328;8.542;2024-03-08T12:01:08;16.93;;;10.53;;
69970;SDS011;57301;50.328;8.542;2024-03-08T12:03:39;15.73;;;9.73;;
69970;SDS011;57301;50.328;8.542;2024-03-08T12:06:06;14.30;;;8.80;;
69970;SDS011;57301;50.328;8.542;2024-03-08T12:08:35;16.55;;;11.02;;
69970;SDS011;57301;50.328;8.542;2024-03-08T12:11:03;14.40;;;9.15;;
69970;SDS011;57301;50.328;8.542;2024-03-08T12:13:31;14.30;;;8.70;;
69970;SDS011;57301;50.328;8.542;2024-03-08T12:15:58;17.20;;;10.40;;
69970;SDS011;57301;50.328;8.542;2024-03-08T12:18:26;14.30;;;8.57;;
69970;SDS011;57301;50.328;8.542;2024-03-08T12:21:04;15.55;;;10.68;;
69970;SDS011;57301;50.328;8.542;2024-03-08T12:23:38;15.57;;;10.50;;
69970;SDS011;57301;50.328;8.542;2024-03-08T12:26:14;16.03;;;10.50;;
69970;SDS011;57301;50.328;8.542;2024-03-08T12:28:43;14.38;;;8.95;;
69970;SDS011;57301;50.328;8.542;2024-03-08T12:31:17;15.20;;;9.73;;
69970;SDS011;57301;50.328;8.542;2024-03-08T12:33:54;17.88;;;10.48;;
69970;SDS011;57301;50.328;8.542;2024-03-08T12:36:25;15.77;;;10.05;;
69970;SDS011;57301;50.328;8.542;2024-03-08T12:38:53;16.27;;;9.90;;
69970;SDS011;57301;50.328;8.542;2024-03-08T12:41:20;15.25;;;10.48;;
69970;SDS011;57301;50.328;8.542;2024-03-08T12:43:47;14.30;;;10.00;;
69970;SDS011;57301;50.328;8.542;2024-03-08T12:46:17;15.57;;;9.98;;
69970;SDS011;57301;50.328;8.542;2024-03-08T12:48:53;17.90;;;11.20;;
69970;SDS011;57301;50.328;8.542;2024-03-08T12:51:20;15.27;;;9.27;;
69970;SDS011;57301;50.328;8.542;2024-03-08T12:53:47;16.73;;;10.95;;
69970;SDS011;57301;50.328;8.542;2024-03-08T12:56:19;14.25;;;9.18;;
69970;SDS011;57301;50.328;8.542;2024-03-08T12:58:54;15.70;;;11.02;;
69970;SDS011;57301;50.328;8.542;2024-03-08T13:01:21;14.13;;;8.85;;
69970;SDS011;57301;50.328;8.542;2024-03-08T13:03:49;14.77;;;9.07;;
69970;SDS011;57301;50.328;8.542;2024-03-08T13:06:19;16.50;;;9.98;;
69970;SDS011;57301;50.328;8.542;2024-03-08T13:08:51;14.98;;;9.38;;
69970;SDS011;57301;50.328;8.542;2024-03-08T13:11:21;16.75;;;9.98;;
69970;SDS011;57301;50.328;8.542;2024-03-08T13:13:53;15.63;;;10.70;;
69970;SDS011;57301;50.328;8.542;2024-03-08T13:16:20;15.23;;;10.50;;
69970;SDS011;57301;50.328;8.542;2024-03-08T13:18:47;15.80;;;9.40;;
69970;SDS011;57301;50.328;8.542;2024-03-08T13:21:19;18.23;;;11.32;;
69970;SDS011;57301;50.328;8.542;2024-03-08T13:23:50;15.65;;;9.65;;
69970;SDS011;57301;50.328;8.542;2024-03-08T13:26:19;14.27;;;9.38;;
69970;SDS011;57301;50.328;8.542;2024-03-08T13:28:46;15.57;;;9.77;;
69970;SDS011;57301;50.328;8.542;2024-03-08T13:31:15;20.13;;;11.07;;
69970;SDS011;57301;50.328;8.542;2024-03-08T13:33:42;16.30;;;9.57;;
69970;SDS011;57301;50.328;8.542;2024-03-08T13:36:08;16.73;;;10.27;;
69970;SDS011;57301;50.328;8.542;2024-03-08T13:38:44;18.98;;;11.05;;
69970;SDS011;57301;50.328;8.542;2024-03-08T13:41:12;16.73;;;10.07;;
69970;SDS011;57301;50.328;8.542;2024-03-08T13:43:41;16.58;;;10.55;;
69970;SDS011;57301;50.328;8.542;2024-03-08T13:46:08;17.25;;;11.30;;
69970;SDS011;57301;50.328;8.542;2024-03-08T13:48:36;15.55;;;9.77;;
69970;SDS011;57301;50.328;8.542;2024-03-08T13:51:07;15.88;;;10.32;;
69970;SDS011;57301;50.328;8.542;2024-03-08T13:53:36;17.70;;;10.80;;
69970;SDS011;57301;50.328;8.542;2024-03-08T13:56:03;15.93;;;10.23;;
69970;SDS011;57301;50.328;8.542;2024-03-08T13:58:30;19.65;;;10.57;;
69970;SDS011;57301;50.328;8.542;2024-03-08T14:00:56;18.98;;;11.70;;
69970;SDS011;57301;50.328;8.542;2024-03-08T14:03:23;18.75;;;11.45;;
69970;SDS011;57301;50.328;8.542;2024-03-08T14:05:52;17.60;;;11.43;;
69970;SDS011;57301;50.328;8.542;2024-03-08T14:08:22;18.02;;;11.43;;
69970;SDS011;57301;50.328;8.542;2024-03-08T14:10:48;21.13;;;12.98;;
69970;SDS011;57301;50.328;8.542;2024-03-08T14:13:17;19.42;;;11.93;;
69970;SDS011;57301;50.328;8.542;2024-03-08T14:15:45;18.50;;;12.00;;
69970;SDS011;57301;50.328;8.542;2024-03-08T14:18:12;17.03;;;11.30;;
69970;SDS011;57301;50.328;8.542;2024-03-08T14:20:39;18.42;;;11.38;;
69970;SDS011;57301;50.328;8.542;2024-03-08T14:23:08;21.35;;;11.95;;
69970;SDS011;57301;50.328;8.542;2024-03-08T14:25:34;16.58;;;9.43;;
69970;SDS011;57301;50.328;8.542;2024-03-08T14:28:01;18.77;;;11.75;;
69970;SDS011;57301;50.328;8.542;2024-03-08T14:30:30;19.40;;;11.23;;
69970;SDS011;57301;50.328;8.542;2024-03-08T14:33:05;18.67;;;11.38;;
69970;SDS011;57301;50.328;8.542;2024-03-08T14:35:32;17.63;;;10.63;;
69970;SDS011;57301;50.328;8.542;2024-03-08T14:37:58;19.50;;;10.43;;
69970;SDS011;57301;50.328;8.542;2024-03-08T14:40:25;21.00;;;11.75;;
69970;SDS011;57301;50.328;8.542;2024-03-08T14:42:52;20.93;;;11.73;;